« Back
NWS Peachtree City, Ga » Text Product » CSG Terminal Aerodrome Forecast

Printer-friendly Version
Current Version              Previous Versions:   1  2  3  4  5  6  7  8  9  

Terminal Aerodrome Forecast

FTUS42 KFFC 250520
KCSG 250520Z 2506/2606 09006KT P6SM SCT250
     FM250900 09006KT P6SM SCT025
     FM251200 09008KT P6SM BKN030
     FM251500 09010G16KT P6SM BKN040
     FM252100 09009KT P6SM SCT045=

USA.gov is the U.S. government's official web portal to all federal, state and local government web resources and services.